createdAt,value
2022-10-18T00:02:03.143Z,101666.38
2022-10-18T00:04:29.341Z,101659.00
2022-10-18T00:06:55.458Z,101660.53
2022-10-18T00:09:21.564Z,101665.09
2022-10-18T00:11:47.665Z,101668.75
2022-10-18T00:14:13.976Z,101663.78
2022-10-18T00:16:40.130Z,101667.03
2022-10-18T00:19:06.275Z,101670.28
2022-10-18T00:21:32.571Z,101667.28
2022-10-18T00:23:58.732Z,101674.03
2022-10-18T00:26:28.246Z,101672.91
2022-10-18T00:29:03.523Z,101673.75
2022-10-18T00:31:30.553Z,101664.84
2022-10-18T00:33:59.006Z,101671.75
2022-10-18T00:36:26.324Z,101673.44
2022-10-18T00:38:53.120Z,101677.16
2022-10-18T00:41:22.412Z,101671.47
2022-10-18T00:43:55.996Z,101676.84
2022-10-18T00:46:22.548Z,101677.56
2022-10-18T00:48:49.141Z,101690.16
2022-10-18T00:51:18.817Z,101686.47
2022-10-18T00:53:45.244Z,101677.38
2022-10-18T00:56:12.381Z,101676.94
2022-10-18T00:58:38.573Z,101674.09
2022-10-18T01:01:04.857Z,101672.13
2022-10-18T01:03:31.707Z,101670.75
2022-10-18T01:05:57.872Z,101675.22
2022-10-18T01:08:50.870Z,101676.81
2022-10-18T01:11:19.628Z,101679.97
2022-10-18T01:14:04.116Z,101683.88
2022-10-18T01:16:48.559Z,101685.66
2022-10-18T01:19:39.909Z,101682.56
2022-10-18T01:22:14.168Z,101678.72
2022-10-18T01:25:00.382Z,101685.06
2022-10-18T01:27:44.609Z,101687.09
2022-10-18T01:30:32.313Z,101686.34
2022-10-18T01:33:04.758Z,101688.03
2022-10-18T01:35:36.393Z,101691.06
2022-10-18T01:38:07.729Z,101682.69
2022-10-18T01:40:36.549Z,101680.34
2022-10-18T01:43:03.999Z,101672.78
2022-10-18T01:45:31.848Z,101674.34
2022-10-18T01:47:58.435Z,101671.50
2022-10-18T01:50:33.038Z,101674.03
2022-10-18T01:52:59.511Z,101661.03
2022-10-18T01:55:33.481Z,101649.56
2022-10-18T01:58:10.641Z,101661.34
2022-10-18T02:00:42.273Z,101670.44
2022-10-18T02:03:20.872Z,101675.34
2022-10-18T02:06:07.850Z,101666.19
2022-10-18T02:08:49.961Z,101664.31
2022-10-18T02:11:17.830Z,101666.88
2022-10-18T02:13:53.012Z,101672.94
2022-10-18T02:16:25.695Z,101680.22
2022-10-18T02:19:13.733Z,101685.09
2022-10-18T02:21:43.374Z,101674.28
2022-10-18T02:24:12.955Z,101678.34
2022-10-18T02:26:39.455Z,101676.97
2022-10-18T02:29:05.734Z,101672.59
2022-10-18T02:31:46.460Z,101669.19
2022-10-18T02:34:20.963Z,101667.84
2022-10-18T02:37:13.452Z,101664.81
2022-10-18T02:39:45.715Z,101675.63
2022-10-18T02:42:13.454Z,101677.63
2022-10-18T02:44:39.880Z,101686.72
2022-10-18T02:47:08.108Z,101688.06
2022-10-18T02:49:34.389Z,101690.41
2022-10-18T02:52:00.568Z,101695.13
2022-10-18T02:54:26.691Z,101693.44
2022-10-18T02:56:52.774Z,101695.13
2022-10-18T02:59:18.873Z,101687.34
2022-10-18T03:01:45.103Z,101694.44
2022-10-18T03:04:11.276Z,101700.19
2022-10-18T03:06:37.531Z,101700.31
2022-10-18T03:09:05.651Z,101710.28
2022-10-18T03:11:32.038Z,101704.88
2022-10-18T03:13:58.146Z,101706.88
2022-10-18T03:16:24.601Z,101716.69
2022-10-18T03:18:50.699Z,101703.50
2022-10-18T03:21:16.832Z,101704.88
2022-10-18T03:23:43.719Z,101693.06
2022-10-18T03:26:09.870Z,101693.72
2022-10-18T03:28:36.042Z,101697.63
2022-10-18T03:31:04.069Z,101705.44
2022-10-18T03:33:31.645Z,101696.97
2022-10-18T03:35:57.896Z,101703.72
2022-10-18T03:38:23.990Z,101717.91
2022-10-18T03:40:50.082Z,101731.91
2022-10-18T03:43:16.184Z,101726.31
2022-10-18T03:45:43.418Z,101740.00
2022-10-18T03:48:09.520Z,101739.34
2022-10-18T03:50:35.615Z,101739.34
2022-10-18T03:53:01.711Z,101745.75
2022-10-18T03:55:27.801Z,101735.78
2022-10-18T03:57:53.891Z,101733.41
2022-10-18T04:00:19.996Z,101725.78
2022-10-18T04:02:46.448Z,101719.34
2022-10-18T04:05:13.064Z,101718.84
2022-10-18T04:07:39.161Z,101718.81
2022-10-18T04:10:05.802Z,101717.59
2022-10-18T04:12:32.154Z,101721.13
2022-10-18T04:14:58.440Z,101726.69
2022-10-18T04:17:24.539Z,101729.56
2022-10-18T04:19:50.644Z,101728.69
2022-10-18T04:22:16.828Z,101725.31
2022-10-18T04:24:42.910Z,101720.09
2022-10-18T04:27:09.006Z,101716.00
2022-10-18T04:29:35.395Z,101728.50
2022-10-18T04:32:01.510Z,101731.88
2022-10-18T04:34:27.593Z,101734.19
2022-10-18T04:36:54.332Z,101740.63
2022-10-18T04:39:20.478Z,101746.03
2022-10-18T04:41:46.572Z,101754.28
2022-10-18T04:44:12.798Z,101757.31
2022-10-18T04:46:38.895Z,101753.88
2022-10-18T04:49:04.990Z,101744.25
2022-10-18T04:51:31.255Z,101733.63
2022-10-18T04:53:57.347Z,101738.31
2022-10-18T04:56:23.915Z,101733.13
2022-10-18T04:58:50.011Z,101733.94
2022-10-18T05:01:17.305Z,101733.94
2022-10-18T05:03:43.442Z,101729.94
2022-10-18T05:06:09.532Z,101724.16
2022-10-18T05:08:36.717Z,101727.19
2022-10-18T05:11:03.768Z,101727.34
2022-10-18T05:13:30.481Z,101712.13
2022-10-18T05:15:56.617Z,101724.78
2022-10-18T05:18:22.737Z,101734.75
2022-10-18T05:20:48.832Z,101724.78
2022-10-18T05:23:14.932Z,101728.50
2022-10-18T05:25:42.568Z,101728.50
2022-10-18T05:28:11.067Z,101734.19
2022-10-18T05:30:47.352Z,101722.56
2022-10-18T05:33:13.469Z,101719.88
2022-10-18T05:35:39.555Z,101708.53
2022-10-18T05:38:06.320Z,101710.56
2022-10-18T05:40:38.799Z,101721.19
2022-10-18T05:43:04.979Z,101721.00
2022-10-18T05:45:31.063Z,101719.34
2022-10-18T05:47:57.159Z,101721.50
2022-10-18T05:50:23.299Z,101721.34
2022-10-18T05:52:49.407Z,101730.81
2022-10-18T05:55:15.519Z,101724.41
2022-10-18T05:57:41.614Z,101729.78
2022-10-18T06:00:08.353Z,101729.09
2022-10-18T06:02:37.897Z,101714.94
2022-10-18T06:05:04.102Z,101718.66
2022-10-18T06:07:30.467Z,101718.50
2022-10-18T06:09:56.808Z,101714.94
2022-10-18T06:12:22.929Z,101719.34
2022-10-18T06:14:49.466Z,101727.09
2022-10-18T06:17:15.571Z,101733.91
2022-10-18T06:19:44.351Z,101726.50
2022-10-18T06:22:11.276Z,101732.72
2022-10-18T06:24:37.418Z,101734.59
2022-10-18T06:27:09.450Z,101737.78
2022-10-18T06:29:36.997Z,101742.69
2022-10-18T06:32:04.249Z,101735.56
2022-10-18T06:34:30.537Z,101735.56
2022-10-18T06:36:58.657Z,101734.75
2022-10-18T06:39:25.461Z,101738.97
2022-10-18T06:41:51.855Z,101735.28
2022-10-18T06:44:19.093Z,101733.72
2022-10-18T06:46:46.560Z,101730.19
2022-10-18T06:49:16.699Z,101730.03
2022-10-18T06:51:45.784Z,101726.50
2022-10-18T06:54:18.137Z,101717.22
2022-10-18T06:56:44.711Z,101710.13
2022-10-18T06:59:10.832Z,101720.75
2022-10-18T07:01:37.008Z,101727.19
2022-10-18T07:04:03.191Z,101721.31
2022-10-18T07:06:29.290Z,101726.06
2022-10-18T07:08:56.223Z,101739.41
2022-10-18T07:11:25.391Z,101740.09
2022-10-18T07:13:54.042Z,101731.50
2022-10-18T07:16:20.210Z,101734.44
2022-10-18T07:18:49.694Z,101742.44
2022-10-18T07:21:17.900Z,101742.63
2022-10-18T07:23:46.256Z,101751.78
2022-10-18T07:26:23.892Z,101744.22
2022-10-18T07:28:55.336Z,101746.06
2022-10-18T07:31:23.010Z,101743.19
2022-10-18T07:33:49.214Z,101745.88
2022-10-18T07:36:15.321Z,101763.97
2022-10-18T07:38:41.707Z,101768.38
2022-10-18T07:41:10.304Z,101771.06
2022-10-18T07:43:36.979Z,101772.91
2022-10-18T07:46:05.040Z,101776.13
2022-10-18T07:48:31.749Z,101780.88
2022-10-18T07:51:01.549Z,101790.88
2022-10-18T07:53:28.880Z,101790.44
2022-10-18T07:56:05.799Z,101791.97
2022-10-18T07:58:34.807Z,101792.19
2022-10-18T08:01:08.477Z,101788.72
2022-10-18T08:03:36.125Z,101794.00
2022-10-18T08:06:03.139Z,101791.63
2022-10-18T08:08:29.554Z,101788.78
2022-10-18T08:10:56.247Z,101787.94
2022-10-18T08:13:22.405Z,101782.91
2022-10-18T08:15:48.521Z,101794.41
2022-10-18T08:18:14.627Z,101797.50
2022-10-18T08:20:45.157Z,101795.81
2022-10-18T08:23:11.702Z,101785.19
2022-10-18T08:25:37.804Z,101778.75
2022-10-18T08:28:04.081Z,101777.91
2022-10-18T08:30:30.210Z,101759.31
2022-10-18T08:32:56.319Z,101760.34
2022-10-18T08:35:22.439Z,101763.38
2022-10-18T08:37:48.599Z,101758.66
2022-10-18T08:40:15.599Z,101758.81
2022-10-18T08:43:08.641Z,101757.63
2022-10-18T08:45:43.240Z,101750.84
2022-10-18T08:48:21.924Z,101748.47
2022-10-18T08:50:49.767Z,101753.88
2022-10-18T08:53:35.105Z,101754.22
2022-10-18T08:56:16.386Z,101757.75
2022-10-18T08:58:46.341Z,101756.19
2022-10-18T09:01:42.063Z,101760.25
2022-10-18T09:04:16.020Z,101767.66
2022-10-18T09:06:56.044Z,101761.50
2022-10-18T09:09:33.564Z,101760.09
2022-10-18T09:12:20.398Z,101770.22
2022-10-18T09:14:55.507Z,101767.81
2022-10-18T09:17:40.670Z,101764.38
2022-10-18T09:20:22.581Z,101771.94
2022-10-18T09:22:53.400Z,101770.88
2022-10-18T09:25:44.989Z,101770.38
2022-10-18T09:28:38.608Z,101774.03
2022-10-18T09:31:13.342Z,101784.28
2022-10-18T09:33:46.136Z,101774.66
2022-10-18T09:36:19.267Z,101781.41
2022-10-18T09:38:48.816Z,101778.31
2022-10-18T09:41:48.142Z,101777.63
2022-10-18T09:44:22.879Z,101780.16
